createdAt,value
2023-09-27T00:03:08.370Z,69.46
2023-09-27T00:08:16.073Z,69.71
2023-09-27T00:13:23.528Z,69.95
2023-09-27T00:18:31.015Z,70.27
2023-09-27T00:23:38.865Z,70.53
2023-09-27T00:28:46.251Z,70.72
2023-09-27T00:33:54.639Z,71.00
2023-09-27T00:39:02.659Z,71.32
2023-09-27T00:44:11.378Z,71.67
2023-09-27T00:49:19.739Z,71.97
2023-09-27T00:54:28.053Z,72.13
2023-09-27T00:59:36.430Z,72.35
2023-09-27T01:04:45.057Z,72.60
2023-09-27T01:09:52.422Z,72.73
2023-09-27T01:15:00.210Z,72.64
2023-09-27T01:20:09.025Z,72.60
2023-09-27T01:25:20.335Z,72.63
2023-09-27T01:30:34.084Z,72.66
2023-09-27T01:35:42.820Z,72.76
2023-09-27T01:40:51.342Z,72.93
2023-09-27T01:45:58.886Z,73.13
2023-09-27T01:51:07.353Z,73.29
2023-09-27T01:56:14.956Z,73.60
2023-09-27T02:01:22.508Z,73.73
2023-09-27T02:06:30.217Z,73.95
2023-09-27T02:11:38.467Z,74.26
2023-09-27T02:16:49.022Z,74.48
2023-09-27T02:21:56.623Z,74.69
2023-09-27T02:27:04.332Z,74.77
2023-09-27T02:32:12.146Z,75.03
2023-09-27T02:37:19.756Z,75.32
2023-09-27T02:42:27.193Z,75.48
2023-09-27T02:47:34.688Z,75.73
2023-09-27T02:52:42.691Z,76.02
2023-09-27T02:57:55.123Z,76.28
2023-09-27T03:03:05.061Z,76.51
2023-09-27T03:08:13.013Z,76.73
2023-09-27T03:13:20.750Z,76.90
2023-09-27T03:18:28.367Z,77.07
2023-09-27T03:23:36.400Z,77.21
2023-09-27T03:28:45.329Z,77.32
2023-09-27T03:33:53.361Z,77.46
2023-09-27T03:39:01.099Z,77.56
2023-09-27T03:44:09.616Z,77.63
2023-09-27T03:49:17.332Z,77.69
2023-09-27T03:54:25.289Z,77.79
2023-09-27T03:59:33.148Z,77.87
2023-09-27T04:04:41.286Z,77.95
2023-09-27T04:09:49.283Z,78.05
2023-09-27T04:14:56.775Z,78.11
2023-09-27T04:20:08.535Z,78.16
2023-09-27T04:25:16.977Z,78.12
2023-09-27T04:30:26.228Z,78.08
2023-09-27T04:35:33.995Z,78.08
2023-09-27T04:40:41.417Z,78.10
2023-09-27T04:45:50.841Z,78.12
2023-09-27T04:50:59.411Z,78.16
2023-09-27T04:56:07.167Z,78.07
2023-09-27T05:01:15.200Z,77.97
2023-09-27T05:06:22.910Z,77.72
2023-09-27T05:11:30.392Z,77.54
2023-09-27T05:16:41.722Z,77.38
2023-09-27T05:21:49.102Z,77.27
2023-09-27T05:27:00.934Z,77.27
2023-09-27T05:32:08.713Z,77.43
2023-09-27T05:37:16.930Z,77.64
2023-09-27T05:42:25.333Z,77.92
2023-09-27T05:47:34.981Z,78.22
2023-09-27T05:52:48.139Z,78.42
2023-09-27T05:57:57.098Z,78.64
2023-09-27T06:03:06.027Z,78.79
2023-09-27T06:08:16.148Z,79.02
2023-09-27T06:13:24.285Z,79.27
2023-09-27T06:18:32.025Z,79.57
2023-09-27T06:23:39.832Z,79.83
2023-09-27T06:28:47.324Z,80.03
2023-09-27T06:33:56.011Z,80.15
2023-09-27T06:39:04.560Z,80.29
2023-09-27T06:44:13.996Z,80.44
2023-09-27T06:49:21.682Z,80.54
2023-09-27T06:54:30.731Z,80.59
2023-09-27T06:59:38.417Z,80.71
2023-09-27T07:04:46.442Z,80.88
2023-09-27T07:09:55.523Z,81.00
2023-09-27T07:15:04.321Z,81.16
2023-09-27T07:20:26.056Z,81.32
2023-09-27T07:25:36.090Z,81.31
2023-09-27T07:30:43.987Z,81.52
2023-09-27T07:35:54.070Z,81.62
2023-09-27T07:41:01.717Z,81.53
2023-09-27T07:46:09.628Z,81.56
2023-09-27T07:51:20.246Z,81.45
2023-09-27T07:56:28.684Z,81.31
2023-09-27T08:07:46.142Z,80.60
2023-09-27T08:12:54.917Z,80.32
2023-09-27T08:18:04.335Z,79.90
2023-09-27T08:23:11.997Z,79.51
2023-09-27T08:28:19.734Z,79.20
2023-09-27T08:33:27.174Z,78.94
2023-09-27T08:38:35.499Z,78.68
2023-09-27T08:43:43.473Z,78.45
2023-09-27T08:48:51.248Z,78.17
2023-09-27T08:53:59.957Z,77.87
2023-09-27T08:59:08.661Z,77.48
2023-09-27T09:04:18.308Z,76.92
2023-09-27T09:09:27.864Z,76.35
2023-09-27T09:14:46.486Z,76.01
2023-09-27T09:20:17.839Z,75.61
2023-09-27T09:25:25.924Z,75.20
2023-09-27T09:30:40.120Z,74.72
2023-09-27T09:35:47.657Z,74.06
2023-09-27T09:40:58.819Z,73.44
2023-09-27T09:46:08.192Z,72.79
2023-09-27T09:51:16.687Z,72.02
2023-09-27T09:56:32.360Z,70.95
2023-09-27T10:01:44.070Z,69.89
2023-09-27T10:06:52.018Z,69.59
2023-09-27T10:12:01.484Z,69.13
2023-09-27T10:17:22.370Z,68.21
2023-09-27T10:22:32.303Z,67.11
2023-09-27T10:28:16.922Z,66.84
2023-09-27T10:33:41.228Z,66.86
2023-09-27T10:39:07.647Z,66.52
2023-09-27T10:44:17.274Z,66.34
2023-09-27T10:49:27.054Z,66.06
2023-09-27T10:54:36.798Z,65.90
2023-09-27T10:59:47.813Z,65.51
2023-09-27T11:05:01.248Z,65.09
2023-09-27T11:10:10.576Z,64.45
2023-09-27T11:15:26.454Z,64.00
2023-09-27T11:20:34.947Z,63.86
2023-09-27T11:25:45.603Z,63.73
2023-09-27T11:31:02.260Z,63.39
2023-09-27T11:36:12.959Z,63.24
2023-09-27T11:41:21.437Z,62.97
2023-09-27T11:46:32.829Z,62.80
2023-09-27T11:51:42.320Z,62.52
2023-09-27T11:56:49.579Z,62.06
2023-09-27T12:01:58.002Z,61.56
2023-09-27T12:07:09.027Z,60.99
2023-09-27T12:12:16.608Z,60.81
2023-09-27T12:17:24.313Z,60.51
2023-09-27T12:22:34.148Z,60.23
2023-09-27T12:27:42.028Z,59.80
2023-09-27T12:32:49.733Z,59.53
2023-09-27T12:37:57.540Z,59.07
2023-09-27T12:43:06.551Z,58.56
2023-09-27T12:48:15.524Z,58.39
2023-09-27T12:53:22.925Z,58.33
2023-09-27T12:58:31.072Z,58.15
2023-09-27T13:03:38.851Z,57.58
2023-09-27T13:08:46.425Z,57.08
2023-09-27T13:13:53.926Z,56.66
2023-09-27T13:19:01.147Z,56.63
2023-09-27T13:24:10.527Z,56.55
2023-09-27T13:29:18.369Z,56.27
2023-09-27T13:34:25.967Z,56.01
2023-09-27T13:39:33.982Z,55.75
2023-09-27T13:44:41.547Z,55.67
2023-09-27T13:49:49.009Z,55.55
2023-09-27T13:54:56.466Z,55.29
2023-09-27T14:00:07.280Z,55.16
2023-09-27T14:05:21.444Z,54.81
2023-09-27T14:10:29.333Z,54.70
2023-09-27T14:15:37.747Z,54.45
2023-09-27T14:20:45.889Z,54.38
2023-09-27T14:25:53.604Z,54.11
2023-09-27T14:31:01.246Z,53.91
2023-09-27T14:36:09.804Z,53.65
2023-09-27T14:41:17.222Z,53.40
2023-09-27T14:46:24.933Z,53.03
2023-09-27T14:51:32.302Z,52.80
2023-09-27T14:56:39.747Z,52.74
2023-09-27T15:01:47.254Z,52.64
2023-09-27T15:06:54.889Z,52.40
2023-09-27T15:12:02.094Z,52.35
2023-09-27T15:17:09.563Z,52.30
2023-09-27T15:22:17.607Z,52.16
2023-09-27T15:27:25.247Z,52.08
2023-09-27T15:32:32.607Z,52.07
2023-09-27T15:37:51.779Z,52.28
2023-09-27T15:42:59.630Z,52.54
2023-09-27T15:48:09.208Z,52.72
2023-09-27T15:53:17.081Z,52.94
2023-09-27T15:58:24.528Z,53.18
2023-09-27T16:03:32.453Z,53.35
2023-09-27T16:08:40.030Z,53.35
2023-09-27T16:13:47.487Z,53.21
2023-09-27T16:18:55.421Z,53.08
2023-09-27T16:24:04.679Z,52.92
2023-09-27T16:29:12.795Z,52.77
2023-09-27T16:34:20.841Z,52.73
2023-09-27T16:39:28.275Z,52.67
2023-09-27T16:44:35.753Z,52.67
2023-09-27T16:49:43.370Z,52.88
2023-09-27T16:54:50.900Z,52.93
2023-09-27T16:59:59.025Z,53.06
2023-09-27T17:05:07.103Z,53.44
2023-09-27T17:10:14.591Z,53.98
2023-09-27T17:15:22.548Z,54.28
2023-09-27T17:20:30.299Z,54.49
2023-09-27T17:25:37.849Z,54.66
2023-09-27T17:30:45.630Z,54.74
2023-09-27T17:35:53.263Z,54.92
2023-09-27T17:41:01.041Z,55.22
2023-09-27T17:46:23.797Z,55.56
2023-09-27T17:51:31.448Z,56.01
2023-09-27T17:56:39.096Z,56.56
2023-09-27T18:01:46.903Z,56.68
2023-09-27T18:06:55.079Z,56.98
2023-09-27T18:12:02.422Z,57.37
2023-09-27T18:17:10.028Z,58.11
2023-09-27T18:22:17.643Z,58.28
2023-09-27T18:27:25.402Z,58.56
2023-09-27T18:32:33.085Z,58.84
2023-09-27T18:37:40.950Z,59.38
2023-09-27T18:42:48.754Z,59.79
2023-09-27T18:47:58.497Z,60.36
2023-09-27T18:53:06.751Z,60.69
2023-09-27T18:58:15.386Z,61.37
2023-09-27T19:03:22.641Z,61.84
2023-09-27T19:08:30.133Z,62.32
2023-09-27T19:13:37.996Z,62.84
2023-09-27T19:18:45.481Z,63.21
2023-09-27T19:23:53.382Z,63.17
2023-09-27T19:29:00.811Z,62.95
2023-09-27T19:34:08.894Z,62.82
2023-09-27T19:39:16.768Z,63.06
2023-09-27T19:44:24.251Z,63.38
2023-09-27T19:49:31.837Z,63.58
2023-09-27T19:54:41.034Z,63.89
2023-09-27T19:59:48.957Z,64.15
2023-09-27T20:04:56.987Z,64.15
2023-09-27T20:10:05.709Z,64.35
2023-09-27T20:15:15.180Z,64.44
2023-09-27T20:20:25.622Z,64.54
2023-09-27T20:25:36.098Z,64.66
2023-09-27T20:30:44.372Z,64.82
2023-09-27T20:35:52.647Z,65.16
2023-09-27T20:41:00.210Z,65.48
2023-09-27T20:46:14.551Z,65.72
2023-09-27T20:51:22.319Z,66.02
2023-09-27T20:56:29.822Z,66.46
2023-09-27T21:01:42.151Z,66.86
2023-09-27T21:06:51.483Z,67.20
2023-09-27T21:11:59.298Z,67.46
2023-09-27T21:17:07.001Z,67.74
2023-09-27T21:22:15.927Z,67.93
2023-09-27T21:27:23.498Z,68.10
2023-09-27T21:32:31.230Z,68.29
2023-09-27T21:37:40.355Z,68.55
2023-09-27T21:42:48.463Z,68.75
2023-09-27T21:47:56.460Z,68.72
2023-09-27T21:53:06.854Z,68.78
2023-09-27T21:58:15.249Z,69.00
2023-09-27T22:03:24.664Z,69.40
2023-09-27T22:08:32.456Z,69.65
2023-09-27T22:13:40.602Z,69.87
2023-09-27T22:18:51.063Z,70.09
2023-09-27T22:24:00.501Z,70.25
2023-09-27T22:29:10.526Z,70.30
2023-09-27T22:34:25.205Z,70.28
2023-09-27T22:39:33.303Z,70.29
2023-09-27T22:44:41.618Z,70.37
2023-09-27T22:49:49.750Z,70.47
2023-09-27T22:55:00.518Z,70.56
2023-09-27T23:00:12.355Z,70.58
2023-09-27T23:05:34.485Z,70.50
2023-09-27T23:10:43.272Z,70.31
2023-09-27T23:15:55.575Z,70.20
2023-09-27T23:21:19.685Z,70.11
2023-09-27T23:26:53.057Z,70.10
2023-09-27T23:32:03.923Z,70.24
2023-09-27T23:37:15.943Z,70.42
2023-09-27T23:42:28.824Z,70.58
2023-09-27T23:47:39.733Z,70.72
2023-09-27T23:52:50.132Z,70.87
2023-09-27T23:58:05.144Z,70.93
